createdAt,value
2018-09-30T00:00:20.899Z,44.10
2018-09-30T00:02:49.195Z,44.40
2018-09-30T00:05:17.659Z,44.90
2018-09-30T00:07:46.039Z,45.10
2018-09-30T00:10:14.488Z,44.80
2018-09-30T00:12:42.835Z,45.10
2018-09-30T00:15:11.369Z,45.10
2018-09-30T00:17:39.756Z,45.30
2018-09-30T00:20:08.120Z,45.90
2018-09-30T00:22:36.428Z,45.50
2018-09-30T00:26:08.128Z,45.60
2018-09-30T00:28:36.544Z,45.80
2018-09-30T00:31:05.069Z,44.80
2018-09-30T00:33:35.927Z,43.60
2018-09-30T00:36:04.372Z,43.70
2018-09-30T00:38:33.098Z,44.70
2018-09-30T00:41:01.460Z,44.20
2018-09-30T00:43:30.471Z,44.30
2018-09-30T00:45:58.811Z,44.40
2018-09-30T00:48:27.394Z,44.30
2018-09-30T00:50:55.819Z,43.90
2018-09-30T00:53:24.174Z,43.70
2018-09-30T00:55:52.527Z,43.00
2018-09-30T00:58:20.943Z,43.60
2018-09-30T01:00:49.456Z,44.00
2018-09-30T01:03:17.930Z,44.50
2018-09-30T01:05:46.516Z,44.60
2018-09-30T01:08:14.908Z,44.70
2018-09-30T01:10:43.242Z,44.80
2018-09-30T01:13:11.864Z,44.80
2018-09-30T01:15:40.431Z,45.20
2018-09-30T01:18:09.143Z,45.40
2018-09-30T01:20:37.498Z,45.80
2018-09-30T01:23:05.988Z,46.00
2018-09-30T01:25:34.407Z,45.90
2018-09-30T01:28:03.200Z,45.80
2018-09-30T01:30:32.646Z,45.80
2018-09-30T01:33:01.469Z,45.80
2018-09-30T01:35:29.916Z,46.10
2018-09-30T01:37:58.223Z,46.30
2018-09-30T01:40:26.828Z,46.20
2018-09-30T01:42:55.183Z,46.30
2018-09-30T01:45:23.640Z,46.60
2018-09-30T01:47:52.077Z,46.50
2018-09-30T01:50:20.536Z,46.50
2018-09-30T01:52:54.672Z,46.50
2018-09-30T01:55:23.161Z,46.50
2018-09-30T01:57:51.788Z,46.30
2018-09-30T02:00:20.264Z,46.50
2018-09-30T02:02:48.740Z,46.60
2018-09-30T02:05:17.691Z,46.60
2018-09-30T02:07:47.063Z,46.80
2018-09-30T02:10:15.539Z,46.50
2018-09-30T02:12:43.991Z,46.70
2018-09-30T02:15:12.787Z,46.30
2018-09-30T02:17:41.203Z,46.70
2018-09-30T02:20:09.683Z,46.70
2018-09-30T02:22:38.067Z,46.50
2018-09-30T02:25:06.545Z,46.20
2018-09-30T02:27:34.975Z,46.20
2018-09-30T02:30:03.396Z,46.30
2018-09-30T02:32:31.611Z,46.40
2018-09-30T02:35:00.344Z,46.50
2018-09-30T02:37:29.111Z,46.80
2018-09-30T02:39:57.697Z,46.80
2018-09-30T02:42:26.478Z,46.80
2018-09-30T02:44:55.303Z,47.60
2018-09-30T02:47:23.667Z,46.70
2018-09-30T02:49:52.359Z,47.00
2018-09-30T02:52:21.162Z,47.60
2018-09-30T02:54:49.930Z,47.80
2018-09-30T02:57:18.308Z,48.00
2018-09-30T02:59:46.864Z,47.70
2018-09-30T03:02:15.359Z,47.40
2018-09-30T03:04:43.856Z,47.40
2018-09-30T03:07:17.716Z,47.60
2018-09-30T03:09:46.205Z,47.80
2018-09-30T03:12:14.528Z,47.50
2018-09-30T03:14:42.944Z,47.30
2018-09-30T03:17:11.286Z,47.50
2018-09-30T03:19:39.784Z,47.40
2018-09-30T03:22:08.372Z,47.50
2018-09-30T03:24:36.771Z,47.70
2018-09-30T03:27:05.202Z,47.90
2018-09-30T03:29:33.684Z,47.80
2018-09-30T03:32:02.132Z,47.30
2018-09-30T03:34:30.627Z,47.70
2018-09-30T03:36:59.050Z,47.80
2018-09-30T03:39:27.541Z,47.80
2018-09-30T03:41:55.870Z,47.30
2018-09-30T03:44:24.184Z,47.70
2018-09-30T03:46:52.616Z,48.00
2018-09-30T03:49:21.011Z,48.20
2018-09-30T03:51:49.454Z,47.90
2018-09-30T03:54:17.913Z,47.40
2018-09-30T03:56:46.394Z,47.80
2018-09-30T03:59:14.665Z,47.90
2018-09-30T04:01:43.071Z,48.60
2018-09-30T04:04:11.471Z,48.10
2018-09-30T04:06:39.815Z,48.20
2018-09-30T04:09:09.000Z,48.20
2018-09-30T04:11:37.927Z,48.20
2018-09-30T04:14:06.351Z,48.20
2018-09-30T04:16:34.781Z,48.10
2018-09-30T04:19:03.188Z,47.90
2018-09-30T04:21:31.567Z,48.50
2018-09-30T04:24:06.445Z,48.10
2018-09-30T04:26:34.904Z,47.70
2018-09-30T04:29:03.597Z,47.50
2018-09-30T04:31:32.193Z,48.40
2018-09-30T04:34:01.056Z,49.10
2018-09-30T04:36:29.867Z,51.90
2018-09-30T04:38:58.415Z,50.80
2018-09-30T04:41:26.812Z,51.00
2018-09-30T04:43:55.114Z,52.90
2018-09-30T04:46:23.567Z,52.10
2018-09-30T04:48:51.916Z,50.60
2018-09-30T04:51:20.272Z,49.90
2018-09-30T04:53:48.575Z,50.20
2018-09-30T04:56:16.987Z,49.30
2018-09-30T04:58:45.471Z,49.30
2018-09-30T05:01:13.864Z,49.30
2018-09-30T05:03:42.320Z,49.30
2018-09-30T05:06:10.741Z,49.60
2018-09-30T05:08:39.101Z,49.20
2018-09-30T05:11:07.560Z,49.90
2018-09-30T05:13:35.959Z,48.90
2018-09-30T05:16:04.417Z,48.70
2018-09-30T05:18:33.162Z,49.70
2018-09-30T05:21:01.520Z,49.30
2018-09-30T05:23:29.981Z,49.50
2018-09-30T05:25:58.277Z,49.70
2018-09-30T05:28:26.676Z,50.10
2018-09-30T05:30:55.019Z,50.70
2018-09-30T05:33:23.368Z,50.50
2018-09-30T05:35:51.827Z,50.70
2018-09-30T05:38:20.345Z,50.70
2018-09-30T05:40:48.803Z,50.20
2018-09-30T05:43:17.265Z,50.30
2018-09-30T05:45:45.785Z,50.70
2018-09-30T05:48:14.126Z,50.80
2018-09-30T05:50:42.503Z,51.00
2018-09-30T05:53:10.924Z,50.90
2018-09-30T05:55:39.339Z,51.00
2018-09-30T05:58:07.660Z,50.90
2018-09-30T06:00:42.713Z,50.90
2018-09-30T06:03:11.201Z,50.80
2018-09-30T06:05:39.716Z,50.60
2018-09-30T06:08:08.084Z,50.60
2018-09-30T06:10:36.369Z,50.60
2018-09-30T06:13:04.744Z,50.80
2018-09-30T06:15:33.092Z,49.60
2018-09-30T06:18:01.394Z,51.50
2018-09-30T06:20:30.129Z,49.70
2018-09-30T06:22:58.564Z,49.30
2018-09-30T06:25:27.088Z,49.50
2018-09-30T06:27:55.512Z,49.60
2018-09-30T06:30:23.932Z,50.30
2018-09-30T06:32:52.202Z,51.20
2018-09-30T06:35:20.553Z,51.30
2018-09-30T06:37:48.935Z,52.00
2018-09-30T06:40:17.538Z,51.70
2018-09-30T06:42:45.869Z,51.60
2018-09-30T06:45:14.525Z,52.20
2018-09-30T06:47:43.252Z,52.60
2018-09-30T06:50:11.643Z,52.40
2018-09-30T06:52:40.034Z,53.00
2018-09-30T06:55:08.468Z,53.40
2018-09-30T06:57:37.314Z,54.20
2018-09-30T07:00:05.814Z,53.60
2018-09-30T07:02:34.143Z,52.80
2018-09-30T07:05:02.908Z,53.10
2018-09-30T07:07:31.361Z,53.20
2018-09-30T07:09:59.649Z,52.80
2018-09-30T07:12:28.151Z,52.70
2018-09-30T07:14:56.497Z,53.40
2018-09-30T07:17:24.972Z,52.50
2018-09-30T07:19:53.646Z,51.80
2018-09-30T07:22:22.066Z,52.30
2018-09-30T07:24:50.539Z,52.00
2018-09-30T07:27:18.980Z,50.40
2018-09-30T07:29:47.425Z,50.20
2018-09-30T07:32:15.860Z,49.90
2018-09-30T07:34:44.588Z,48.50
2018-09-30T07:37:12.971Z,48.10
2018-09-30T07:39:41.811Z,46.70
2018-09-30T07:42:10.333Z,44.60
2018-09-30T07:44:39.090Z,45.40
2018-09-30T07:47:07.800Z,45.60
2018-09-30T07:49:36.252Z,45.10
2018-09-30T07:52:04.939Z,44.70
2018-09-30T07:54:33.405Z,45.30
2018-09-30T07:57:02.128Z,45.40
2018-09-30T07:59:30.930Z,45.30
2018-09-30T08:01:59.279Z,45.60
2018-09-30T08:04:27.583Z,46.60
2018-09-30T08:06:56.031Z,46.20
2018-09-30T08:09:24.496Z,46.60
2018-09-30T08:11:52.947Z,46.10
2018-09-30T08:14:32.537Z,45.70
2018-09-30T08:17:00.961Z,45.70
2018-09-30T08:19:29.381Z,45.70
2018-09-30T08:21:57.871Z,45.00
2018-09-30T08:24:26.294Z,45.10
2018-09-30T08:26:54.685Z,45.50
2018-09-30T08:29:23.163Z,45.70
2018-09-30T08:31:51.689Z,45.00
2018-09-30T08:34:20.035Z,44.80
2018-09-30T08:36:48.962Z,44.40
2018-09-30T08:39:17.379Z,45.10
2018-09-30T08:41:45.991Z,44.50
2018-09-30T08:44:15.045Z,44.20
2018-09-30T08:46:43.695Z,44.70
2018-09-30T08:49:12.191Z,42.30
2018-09-30T08:51:40.591Z,42.90
2018-09-30T08:54:09.246Z,42.30
2018-09-30T08:56:37.626Z,42.80
2018-09-30T08:59:06.011Z,41.70
2018-09-30T09:01:34.775Z,42.10
2018-09-30T09:04:03.187Z,42.10
2018-09-30T09:06:31.923Z,42.40
2018-09-30T09:09:00.338Z,42.10
2018-09-30T09:11:30.348Z,41.10
2018-09-30T09:13:59.062Z,40.20
2018-09-30T09:16:27.360Z,40.10
2018-09-30T09:18:55.722Z,40.40
2018-09-30T09:21:24.111Z,40.40
2018-09-30T09:23:52.408Z,40.60
2018-09-30T09:26:21.054Z,39.10
2018-09-30T09:28:49.484Z,39.30
2018-09-30T09:31:17.949Z,39.40
2018-09-30T09:33:46.382Z,37.50
2018-09-30T09:36:15.131Z,36.70
2018-09-30T09:38:43.623Z,36.50
2018-09-30T09:41:11.991Z,37.30
2018-09-30T09:43:40.423Z,36.60
2018-09-30T09:46:08.991Z,36.50
2018-09-30T09:48:37.479Z,36.30
2018-09-30T09:51:06.107Z,37.00
2018-09-30T09:53:35.584Z,38.00
2018-09-30T09:56:04.084Z,37.30
2018-09-30T09:58:33.127Z,36.70
2018-09-30T10:01:04.475Z,37.60
2018-09-30T10:03:33.556Z,36.90
2018-09-30T10:06:01.895Z,36.10
2018-09-30T10:08:30.522Z,36.00
2018-09-30T10:10:58.923Z,36.80
2018-09-30T10:13:27.466Z,35.70
2018-09-30T10:15:55.765Z,36.00
2018-09-30T10:18:24.164Z,35.10
2018-09-30T10:20:52.448Z,35.40
2018-09-30T10:23:20.798Z,36.10
2018-09-30T10:25:49.268Z,35.80
2018-09-30T10:28:17.712Z,35.30
2018-09-30T10:30:46.247Z,34.10
2018-09-30T10:33:14.832Z,35.30
2018-09-30T10:35:43.317Z,35.00
2018-09-30T10:38:11.639Z,35.20
2018-09-30T10:40:40.077Z,34.50
2018-09-30T10:43:08.540Z,34.30
2018-09-30T10:45:36.927Z,34.60
2018-09-30T10:48:05.426Z,34.20
2018-09-30T10:50:34.084Z,34.00
2018-09-30T10:53:02.519Z,34.20
2018-09-30T10:55:31.319Z,32.00
2018-09-30T10:57:59.904Z,30.70
2018-09-30T11:00:28.202Z,31.00
2018-09-30T11:02:56.543Z,31.30
2018-09-30T11:05:25.000Z,30.30
2018-09-30T11:07:53.537Z,30.40
2018-09-30T11:10:21.883Z,30.50
2018-09-30T11:12:50.294Z,30.20
2018-09-30T11:15:42.932Z,29.80
2018-09-30T11:18:11.335Z,30.10
2018-09-30T11:20:39.803Z,30.60
2018-09-30T11:23:08.236Z,29.90
2018-09-30T11:25:36.745Z,30.30
2018-09-30T11:28:05.256Z,30.00
2018-09-30T11:30:34.427Z,30.60
2018-09-30T11:33:02.804Z,30.60
2018-09-30T11:35:31.148Z,30.00
2018-09-30T11:37:59.778Z,29.70
2018-09-30T11:40:28.254Z,29.30
2018-09-30T11:42:56.779Z,29.10
2018-09-30T11:45:25.419Z,29.30
2018-09-30T11:47:53.861Z,29.00
2018-09-30T11:50:22.193Z,29.30
2018-09-30T11:52:50.783Z,28.90
2018-09-30T11:55:19.024Z,29.40
2018-09-30T11:57:47.732Z,29.80
2018-09-30T12:00:16.300Z,28.70
2018-09-30T12:02:44.799Z,28.70
2018-09-30T12:05:13.583Z,29.00
2018-09-30T12:07:42.000Z,28.70
2018-09-30T12:10:10.391Z,28.60
2018-09-30T12:12:38.745Z,29.10
2018-09-30T12:15:50.014Z,29.20
2018-09-30T12:18:18.407Z,28.30
2018-09-30T12:20:46.997Z,28.70
2018-09-30T12:23:15.396Z,29.10
2018-09-30T12:25:44.013Z,29.10
2018-09-30T12:28:12.390Z,29.30
2018-09-30T12:30:40.795Z,29.10
2018-09-30T12:33:09.276Z,27.60
2018-09-30T12:35:37.759Z,28.10
2018-09-30T12:38:06.132Z,28.70
2018-09-30T12:40:34.597Z,27.80
2018-09-30T12:43:03.106Z,28.20
2018-09-30T12:45:31.587Z,28.30
2018-09-30T12:47:59.923Z,28.40
2018-09-30T12:50:28.543Z,28.60
2018-09-30T12:52:57.048Z,27.40
2018-09-30T12:55:25.528Z,27.60
2018-09-30T12:57:54.061Z,27.20
2018-09-30T13:00:22.487Z,27.00
2018-09-30T13:02:50.954Z,27.50
2018-09-30T13:05:19.491Z,27.60
2018-09-30T13:07:48.081Z,27.60
2018-09-30T13:10:16.523Z,27.00
2018-09-30T13:12:44.963Z,27.20
2018-09-30T13:18:32.956Z,27.40
2018-09-30T13:21:01.651Z,26.90
2018-09-30T13:23:29.973Z,27.30
2018-09-30T13:25:58.314Z,26.50
2018-09-30T13:28:26.774Z,26.10
2018-09-30T13:30:55.118Z,26.00
2018-09-30T13:33:23.598Z,26.80
2018-09-30T13:35:52.111Z,26.30
2018-09-30T13:38:20.520Z,26.50
2018-09-30T13:40:49.122Z,26.30
2018-09-30T13:43:17.432Z,26.40
2018-09-30T13:45:45.906Z,26.50
2018-09-30T13:48:14.210Z,26.50
2018-09-30T13:50:42.604Z,26.50
2018-09-30T13:53:11.159Z,26.60
2018-09-30T13:55:39.663Z,26.70
2018-09-30T13:58:08.388Z,26.50
2018-09-30T14:00:36.867Z,26.40
2018-09-30T14:03:06.247Z,26.10
2018-09-30T14:05:34.745Z,26.10
2018-09-30T14:08:03.594Z,26.40
2018-09-30T14:10:32.767Z,26.50
2018-09-30T14:13:01.222Z,26.80
2018-09-30T14:16:18.219Z,26.60
2018-09-30T14:18:46.836Z,26.70
2018-09-30T14:21:15.266Z,26.70
2018-09-30T14:23:43.663Z,26.30
2018-09-30T14:26:12.047Z,26.90
2018-09-30T14:28:40.536Z,26.40
2018-09-30T14:31:08.972Z,25.90
2018-09-30T14:33:37.274Z,26.10
2018-09-30T14:36:05.813Z,26.50
2018-09-30T14:38:34.672Z,26.40
2018-09-30T14:41:03.012Z,25.80
2018-09-30T14:43:31.635Z,26.10
2018-09-30T14:46:00.040Z,26.30
2018-09-30T14:48:28.545Z,26.50
2018-09-30T14:50:56.951Z,25.80
2018-09-30T14:53:25.478Z,25.70
2018-09-30T14:55:53.933Z,25.90
2018-09-30T14:58:22.367Z,26.30
2018-09-30T15:00:50.839Z,26.30
2018-09-30T15:03:19.134Z,26.00
2018-09-30T15:05:47.715Z,25.80
2018-09-30T15:08:16.624Z,25.80
2018-09-30T15:10:44.893Z,26.20
2018-09-30T15:13:13.300Z,26.30
2018-09-30T15:16:28.199Z,26.50
2018-09-30T15:18:56.627Z,26.60
2018-09-30T15:21:25.239Z,26.80
2018-09-30T15:23:53.770Z,26.60
2018-09-30T15:26:22.351Z,26.20
2018-09-30T15:28:51.176Z,26.30
2018-09-30T15:31:19.727Z,26.30
2018-09-30T15:33:48.420Z,27.00
2018-09-30T15:36:17.367Z,26.50
2018-09-30T15:38:46.627Z,26.70
2018-09-30T15:41:15.440Z,26.70
2018-09-30T15:43:44.458Z,26.90
2018-09-30T15:46:13.153Z,27.20
2018-09-30T15:48:41.883Z,27.80
2018-09-30T15:51:10.236Z,28.00
2018-09-30T15:53:38.551Z,28.00
2018-09-30T15:56:07.057Z,28.00
2018-09-30T15:58:35.536Z,28.00
2018-09-30T16:01:04.100Z,28.70
2018-09-30T16:03:32.940Z,28.90
2018-09-30T16:06:01.499Z,29.00
2018-09-30T16:08:30.295Z,29.20
2018-09-30T16:10:59.024Z,29.30
2018-09-30T16:13:27.648Z,29.50
2018-09-30T16:16:39.571Z,29.20
2018-09-30T16:19:08.384Z,29.30
2018-09-30T16:21:37.096Z,29.50
2018-09-30T16:24:06.009Z,30.10
2018-09-30T16:26:34.927Z,30.30
2018-09-30T16:29:03.910Z,30.80
2018-09-30T16:31:32.903Z,31.00
2018-09-30T16:34:01.460Z,31.60
2018-09-30T16:36:30.156Z,32.00
2018-09-30T16:38:58.969Z,32.30
2018-09-30T16:41:27.587Z,32.60
2018-09-30T16:43:56.463Z,33.00
2018-09-30T16:46:25.166Z,33.20
2018-09-30T16:48:53.553Z,33.60
2018-09-30T16:51:21.922Z,33.90
2018-09-30T16:53:50.323Z,34.10
2018-09-30T16:56:18.691Z,34.40
2018-09-30T16:58:47.014Z,34.50
2018-09-30T17:01:15.619Z,34.80
2018-09-30T17:03:44.025Z,35.10
2018-09-30T17:06:12.692Z,35.10
2018-09-30T17:08:41.715Z,35.20
2018-09-30T17:11:10.688Z,35.20
2018-09-30T17:13:39.732Z,35.40
2018-09-30T17:16:54.426Z,35.30
2018-09-30T17:19:24.239Z,35.20
2018-09-30T17:21:53.551Z,35.50
2018-09-30T17:24:22.572Z,35.50
2018-09-30T17:26:51.794Z,35.60
2018-09-30T17:29:20.983Z,35.50
2018-09-30T17:31:50.012Z,35.40
2018-09-30T17:34:19.136Z,35.60
2018-09-30T17:36:48.354Z,36.50
2018-09-30T17:39:17.597Z,35.90
2018-09-30T17:41:46.716Z,36.10
2018-09-30T17:44:15.848Z,36.00
2018-09-30T17:46:44.830Z,36.20
2018-09-30T17:49:13.932Z,36.20
2018-09-30T17:51:42.987Z,36.30
2018-09-30T17:54:12.119Z,36.80
2018-09-30T17:56:41.163Z,36.90
2018-09-30T17:59:10.320Z,37.00
2018-09-30T18:01:39.071Z,37.20
2018-09-30T18:04:08.119Z,37.30
2018-09-30T18:06:37.048Z,37.50
2018-09-30T18:09:08.271Z,37.40
2018-09-30T18:11:36.935Z,37.40
2018-09-30T18:14:05.908Z,37.30
2018-09-30T18:17:02.996Z,37.80
2018-09-30T18:19:31.576Z,38.20
2018-09-30T18:21:59.973Z,38.00
2018-09-30T18:24:28.568Z,38.10
2018-09-30T18:26:57.043Z,38.40
2018-09-30T18:29:25.486Z,38.60
2018-09-30T18:31:54.080Z,38.50
2018-09-30T18:34:22.605Z,38.50
2018-09-30T18:36:51.343Z,38.70
2018-09-30T18:39:19.778Z,38.70
2018-09-30T18:41:48.184Z,38.60
2018-09-30T18:44:16.919Z,38.80
2018-09-30T18:46:45.899Z,39.10
2018-09-30T18:49:14.342Z,39.50
2018-09-30T18:51:42.904Z,39.50
2018-09-30T18:54:11.639Z,39.60
2018-09-30T18:56:40.453Z,40.00
2018-09-30T18:59:09.284Z,40.10
2018-09-30T19:01:37.808Z,39.90
2018-09-30T19:04:06.423Z,40.20
2018-09-30T19:06:34.773Z,40.10
2018-09-30T19:09:04.583Z,40.50
2018-09-30T19:11:32.942Z,40.60
2018-09-30T19:14:01.399Z,40.70
2018-09-30T19:17:03.830Z,41.00
2018-09-30T19:19:32.239Z,41.00
2018-09-30T19:22:00.658Z,41.10
2018-09-30T19:24:29.730Z,41.10
2018-09-30T19:26:58.032Z,41.20
2018-09-30T19:29:26.389Z,41.20
2018-09-30T19:31:54.990Z,41.20
2018-09-30T19:34:23.601Z,41.60
2018-09-30T19:36:52.389Z,41.60
2018-09-30T19:39:22.071Z,41.70
2018-09-30T19:41:50.767Z,41.80
2018-09-30T19:44:19.574Z,42.10
2018-09-30T19:46:48.358Z,42.40
2018-09-30T19:49:17.164Z,42.60
2018-09-30T19:51:45.626Z,42.80
2018-09-30T19:54:14.111Z,42.70
2018-09-30T19:56:43.062Z,42.50
2018-09-30T19:59:11.528Z,42.50
2018-09-30T20:01:40.058Z,42.80
2018-09-30T20:04:08.590Z,43.00
2018-09-30T20:06:37.082Z,43.00
2018-09-30T20:09:07.820Z,43.70
2018-09-30T20:11:36.889Z,44.10
2018-09-30T20:14:05.599Z,44.20
2018-09-30T20:17:11.549Z,44.10
2018-09-30T20:19:39.984Z,44.30
2018-09-30T20:22:10.007Z,44.00
2018-09-30T20:24:38.591Z,43.90
2018-09-30T20:27:46.266Z,44.20
2018-09-30T20:30:15.595Z,44.30
2018-09-30T20:32:44.934Z,44.20
2018-09-30T20:35:14.083Z,44.20
2018-09-30T20:37:43.019Z,44.20
2018-09-30T20:40:11.619Z,44.30
2018-09-30T20:42:40.867Z,44.60
2018-09-30T20:45:09.758Z,44.70
2018-09-30T20:47:38.298Z,44.70
2018-09-30T20:50:07.475Z,44.70
2018-09-30T20:52:36.272Z,45.00
2018-09-30T20:55:04.753Z,45.10
2018-09-30T20:57:33.303Z,45.00
2018-09-30T21:00:01.979Z,45.00
2018-09-30T21:02:30.851Z,45.20
2018-09-30T21:05:04.911Z,45.40
2018-09-30T21:07:33.928Z,45.50
2018-09-30T21:10:02.924Z,45.60
2018-09-30T21:12:31.724Z,45.70
2018-09-30T21:18:06.822Z,45.90
2018-09-30T21:20:36.792Z,46.20
2018-09-30T21:23:06.085Z,46.00
2018-09-30T21:25:34.600Z,46.30
2018-09-30T21:28:03.150Z,46.40
2018-09-30T21:30:32.108Z,46.40
2018-09-30T21:33:00.463Z,46.40
2018-09-30T21:35:28.925Z,46.40
2018-09-30T21:37:57.311Z,46.70
2018-09-30T21:40:25.924Z,46.90
2018-09-30T21:42:54.275Z,47.00
2018-09-30T21:45:22.728Z,47.30
2018-09-30T21:47:51.280Z,47.50
2018-09-30T21:50:19.726Z,47.50
2018-09-30T21:52:48.071Z,47.60
2018-09-30T21:55:16.436Z,47.70
2018-09-30T21:57:44.880Z,47.80
2018-09-30T22:00:17.851Z,48.10
2018-09-30T22:02:46.311Z,48.10
2018-09-30T22:05:14.631Z,48.20
2018-09-30T22:07:42.921Z,48.40
2018-09-30T22:10:11.315Z,48.40
2018-09-30T22:12:39.695Z,48.30
2018-09-30T22:15:08.153Z,49.30
2018-09-30T22:17:36.600Z,48.50
2018-09-30T22:20:05.800Z,48.50
2018-09-30T22:22:34.174Z,48.40
2018-09-30T22:25:02.605Z,48.60
2018-09-30T22:27:31.096Z,48.60
2018-09-30T22:29:59.459Z,48.50
2018-09-30T22:32:28.484Z,48.70
2018-09-30T22:34:57.114Z,48.70
2018-09-30T22:37:26.498Z,48.70
2018-09-30T22:39:54.944Z,48.90
2018-09-30T22:42:23.699Z,49.20
2018-09-30T22:44:52.077Z,49.20
2018-09-30T22:47:20.480Z,49.30
2018-09-30T22:49:48.833Z,49.40
2018-09-30T22:52:17.284Z,49.20
2018-09-30T22:54:45.643Z,49.50
2018-09-30T22:57:14.108Z,49.70
2018-09-30T22:59:42.562Z,49.90
2018-09-30T23:02:10.913Z,50.10
2018-09-30T23:04:39.301Z,50.40
2018-09-30T23:07:07.763Z,50.40
2018-09-30T23:09:36.146Z,50.60
2018-09-30T23:12:04.429Z,50.60
2018-09-30T23:14:32.936Z,50.00
2018-09-30T23:17:01.353Z,50.80
2018-09-30T23:19:29.676Z,50.80
2018-09-30T23:21:58.118Z,50.90
2018-09-30T23:24:26.560Z,52.00
2018-09-30T23:26:55.032Z,51.40
2018-09-30T23:29:23.476Z,51.50
2018-09-30T23:31:51.883Z,51.70
2018-09-30T23:34:20.438Z,51.90
2018-09-30T23:36:48.724Z,52.60
2018-09-30T23:39:17.228Z,52.10
2018-09-30T23:41:45.610Z,52.20
2018-09-30T23:44:13.924Z,52.10
2018-09-30T23:46:42.348Z,52.30
2018-09-30T23:49:10.755Z,52.50
2018-09-30T23:51:39.239Z,52.50
2018-09-30T23:54:07.923Z,52.80
2018-09-30T23:56:36.357Z,52.80
2018-09-30T23:59:04.868Z,53.00
